Time;durP1;ratioP1;P1;durP2;ratioP2;P2;SDS_P1;SDS_P2;PMS_P1;PMS_P2;Temp;Humidity;BMP_temperature;BMP_pressure;BME280_temperature;BME280_humidity;BME280_pressure;Samples;Min_cycle;Max_cycle;Signal;HPM_P1;HPM_P2
2022/05/17 00:01:06;;;;;;;9.60;5.30;;;;;;;13.96;66.58;99017.56;105208;1271;60506;-78
2022/05/17 00:03:34;;;;;;;6.30;4.70;;;;;;;13.93;66.39;99011.35;105166;1271;75256;-79
2022/05/17 00:06:01;;;;;;;8.60;5.30;;;;;;;13.93;66.41;99013.67;105333;1271;69896;-78
2022/05/17 00:08:28;;;;;;;7.10;4.90;;;;;;;13.94;66.24;99006.58;105224;1271;74187;-80
2022/05/17 00:10:55;;;;;;;5.70;4.10;;;;;;;13.96;66.34;99009.17;105158;1271;61160;-77
2022/05/17 00:13:21;;;;;;;7.30;4.50;;;;;;;13.96;66.37;99009.02;105188;1271;60587;-77
2022/05/17 00:15:51;;;;;;;5.60;4.50;;;;;;;13.97;66.17;99009.64;105180;1271;60549;-77
2022/05/17 00:18:19;;;;;;;7.10;4.40;;;;;;;13.96;66.23;99003.27;105391;1269;68650;-76
2022/05/17 00:20:47;;;;;;;8.30;4.70;;;;;;;13.97;66.15;99003.35;105168;1271;73177;-76
2022/05/17 00:23:17;;;;;;;7.50;4.10;;;;;;;13.98;65.88;99002.08;105171;1271;61216;-77
2022/05/17 00:25:47;;;;;;;8.00;4.50;;;;;;;13.98;65.86;98999.50;105205;1271;62071;-77
2022/05/17 00:28:19;;;;;;;8.90;4.90;;;;;;;14.00;65.90;98997.97;105193;1271;74796;-77
2022/05/17 00:30:47;;;;;;;8.80;4.40;;;;;;;14.00;65.96;98994.51;105210;1271;69360;-77
2022/05/17 00:33:14;;;;;;;10.00;4.80;;;;;;;14.02;66.14;98994.59;104973;1271;73298;-76
2022/05/17 00:35:43;;;;;;;8.30;4.30;;;;;;;14.01;66.18;98990.91;105157;1271;60478;-75
2022/05/17 00:38:10;;;;;;;6.30;4.40;;;;;;;14.00;66.08;98995.05;105188;1271;60351;-76
2022/05/17 00:40:37;;;;;;;7.00;4.40;;;;;;;13.98;65.95;98991.48;105196;1271;74291;-77
2022/05/17 00:43:09;;;;;;;7.70;5.40;;;;;;;13.94;66.07;98997.50;104851;1271;457897;-76
2022/05/17 00:45:45;;;;;;;6.90;4.40;;;;;;;13.90;66.03;98994.69;104944;1271;72978;-76
2022/05/17 00:48:13;;;;;;;7.80;4.40;;;;;;;13.87;66.05;98992.44;105216;1271;60494;-76
2022/05/17 00:50:43;;;;;;;5.50;4.10;;;;;;;13.84;66.04;98988.52;105210;1271;60861;-76
2022/05/17 00:53:12;;;;;;;6.40;4.50;;;;;;;13.83;66.26;98987.55;105182;1271;74324;-76
2022/05/17 00:55:47;;;;;;;6.00;4.20;;;;;;;13.81;66.40;98985.21;105051;1271;69404;-78
2022/05/17 00:58:23;;;;;;;5.70;3.90;;;;;;;13.78;66.40;98985.79;105192;1271;74094;-77
2022/05/17 01:01:14;;;;;;;6.90;4.60;;;;;;;13.76;66.54;98992.39;105175;1271;60545;-76
2022/05/17 01:03:58;;;;;;;;;;;;;;;13.74;66.59;98985.40;105221;1271;60835;-77
2022/05/17 01:06:27;;;;;;;7.00;5.30;;;;;;;13.70;66.77;98977.34;105269;1271;73250;-73
2022/05/17 01:08:54;;;;;;;8.50;5.00;;;;;;;13.66;66.72;98979.95;105229;1271;70699;-76
2022/05/17 01:11:21;;;;;;;14.70;6.80;;;;;;;13.62;66.89;98973.67;105185;1271;60574;-77
2022/05/17 01:16:32;;;;;;;14.20;8.80;;;;;;;13.58;66.88;98966.33;105001;1270;62037;-77
2022/05/17 01:19:00;;;;;;;13.20;8.80;;;;;;;13.57;66.90;98969.05;105257;1271;75327;-76
2022/05/17 01:21:26;;;;;;;13.60;9.50;;;;;;;13.57;67.05;98962.06;105234;1271;69450;-77
2022/05/17 01:23:53;;;;;;;13.00;9.60;;;;;;;13.57;66.76;98961.16;105278;1269;60385;-75
2022/05/17 01:26:23;;;;;;;12.90;9.50;;;;;;;13.56;67.07;98960.23;105197;1271;61152;-79
2022/05/17 01:28:50;;;;;;;19.20;11.50;;;;;;;13.53;66.97;98959.17;105203;1271;61818;-77
2022/05/17 01:31:19;;;;;;;17.10;11.10;;;;;;;13.51;67.21;98957.93;105185;1271;74097;-77
2022/05/17 01:33:45;;;;;;;20.80;11.60;;;;;;;13.49;67.32;98949.03;105203;1271;69006;-77
2022/05/17 01:36:15;;;;;;;17.10;9.90;;;;;;;13.47;66.97;98955.06;105176;1271;60347;-76
2022/05/17 01:38:50;;;;;;;16.60;10.80;;;;;;;13.46;66.91;98954.80;105230;1271;60510;-76
2022/05/17 01:41:19;;;;;;;14.20;8.50;;;;;;;13.46;67.08;98950.48;105194;1271;62003;-76
2022/05/17 01:43:45;;;;;;;14.40;8.40;;;;;;;13.46;66.83;98949.45;105169;1271;73519;-78
2022/05/17 01:46:12;;;;;;;15.00;7.30;;;;;;;13.47;66.66;98950.30;105173;1271;60501;-78
2022/05/17 01:48:39;;;;;;;10.30;6.20;;;;;;;13.47;66.77;98950.95;105208;1269;60466;-77
2022/05/17 01:51:07;;;;;;;9.20;6.30;;;;;;;13.48;66.84;98950.89;105068;1271;60482;-76
2022/05/17 01:53:34;;;;;;;10.10;5.70;;;;;;;13.48;66.74;98947.52;105193;1271;61160;-75
2022/05/17 01:56:01;;;;;;;10.10;6.00;;;;;;;13.47;66.98;98947.02;105230;1271;74370;-76
2022/05/17 01:58:28;;;;;;;10.60;6.00;;;;;;;13.46;66.93;98943.69;105211;1271;68818;-77
2022/05/17 02:00:55;;;;;;;9.40;6.00;;;;;;;13.45;66.92;98946.29;105194;1271;73959;-77
2022/05/17 02:03:22;;;;;;;11.00;7.10;;;;;;;13.44;66.91;98945.27;105171;1271;61494;-77
2022/05/17 02:05:48;;;;;;;8.70;6.10;;;;;;;13.43;66.92;98942.87;105183;1271;60533;-77
2022/05/17 02:08:15;;;;;;;8.40;5.90;;;;;;;13.41;66.93;98942.50;105163;1270;60548;-77
2022/05/17 02:10:41;;;;;;;9.20;5.70;;;;;;;13.40;66.90;98935.80;105191;1271;70260;-77
2022/05/17 02:13:08;;;;;;;7.80;5.20;;;;;;;13.39;67.07;98936.95;105036;1271;60491;-78
2022/05/17 02:15:36;;;;;;;7.10;5.10;;;;;;;13.38;67.18;98932.02;105174;1271;60417;-77
2022/05/17 02:18:02;;;;;;;7.90;5.00;;;;;;;13.36;67.36;98936.46;105206;1271;60782;-77
2022/05/17 02:20:30;;;;;;;10.50;5.20;;;;;;;13.35;67.46;98938.55;105207;1271;75590;-78
2022/05/17 02:22:59;;;;;;;7.00;4.80;;;;;;;13.32;67.66;98942.29;105234;1271;70873;-78
2022/05/17 02:25:27;;;;;;;9.70;4.30;;;;;;;13.30;67.77;98941.63;105338;1271;73309;-81
2022/05/17 02:27:53;;;;;;;8.40;4.90;;;;;;;13.27;68.00;98940.76;105260;1271;60492;-77
2022/05/17 02:30:21;;;;;;;8.50;5.20;;;;;;;13.25;68.00;98941.08;105173;1271;60417;-76
2022/05/17 02:32:47;;;;;;;7.30;5.30;;;;;;;13.22;68.10;98943.41;105255;1270;73432;-78
2022/05/17 02:35:14;;;;;;;11.60;5.50;;;;;;;13.20;68.23;98938.25;105190;1271;60457;-78
2022/05/17 02:37:40;;;;;;;8.50;4.60;;;;;;;13.19;68.17;98934.41;105176;1271;73290;-77
2022/05/17 02:40:08;;;;;;;8.70;5.20;;;;;;;13.17;68.30;98939.39;105184;1271;60459;-78
2022/05/17 02:42:35;;;;;;;6.80;4.30;;;;;;;13.16;68.34;98940.11;105225;1271;62412;-77
2022/05/17 02:45:03;;;;;;;8.20;4.80;;;;;;;13.16;68.57;98940.67;105089;1271;74377;-78
2022/05/17 02:47:29;;;;;;;6.70;4.00;;;;;;;13.15;68.49;98935.42;105209;1270;69422;-78
2022/05/17 02:49:56;;;;;;;9.20;4.50;;;;;;;13.15;68.60;98940.59;105178;1269;74304;-76
2022/05/17 02:52:23;;;;;;;9.60;4.90;;;;;;;13.16;68.47;98938.93;105188;1271;60609;-76
2022/05/17 02:54:49;;;;;;;7.00;4.60;;;;;;;13.16;68.65;98937.64;105155;1271;60478;-77
2022/05/17 02:57:16;;;;;;;8.30;4.90;;;;;;;13.16;68.64;98935.15;105149;1271;74456;-76
2022/05/17 02:59:42;;;;;;;9.90;4.80;;;;;;;13.16;68.63;98935.68;105168;1271;70596;-76
2022/05/17 03:02:09;;;;;;;5.70;4.40;;;;;;;13.17;68.64;98937.60;105125;1269;73328;-76
2022/05/17 03:04:36;;;;;;;7.50;5.00;;;;;;;13.16;68.70;98941.20;105179;1270;61259;-77
2022/05/17 03:07:02;;;;;;;7.70;5.10;;;;;;;13.16;68.74;98945.33;105228;1269;60386;-77
2022/05/17 03:09:29;;;;;;;6.90;4.50;;;;;;;13.16;68.90;98948.33;105232;1271;75536;-76
2022/05/17 03:11:55;;;;;;;6.00;4.60;;;;;;;13.17;68.98;98949.86;105328;1271;60611;-76
2022/05/17 03:14:22;;;;;;;7.10;5.00;;;;;;;13.17;68.93;98951.10;105164;1271;60617;-77
2022/05/17 03:16:48;;;;;;;6.90;4.70;;;;;;;13.18;68.79;98954.23;105262;1269;60503;-79
2022/05/17 03:19:17;;;;;;;6.10;4.50;;;;;;;13.20;68.74;98950.59;105170;1271;60525;-79
2022/05/17 03:21:44;;;;;;;8.70;4.60;;;;;;;13.21;68.59;98956.17;105173;1271;74310;-78
2022/05/17 03:24:11;;;;;;;9.40;5.20;;;;;;;13.23;68.45;98960.69;105220;1271;69268;-76
2022/05/17 03:26:37;;;;;;;6.80;4.80;;;;;;;13.25;68.59;98961.39;105200;1271;73414;-78
2022/05/17 03:29:05;;;;;;;8.00;4.60;;;;;;;13.29;68.56;98961.67;105215;1271;60604;-76
2022/05/17 03:31:31;;;;;;;7.80;5.10;;;;;;;13.34;68.44;98961.61;105165;1271;61113;-76
2022/05/17 03:33:58;;;;;;;7.30;4.70;;;;;;;13.39;68.46;98957.44;104977;1271;60518;-76
2022/05/17 03:36:24;;;;;;;8.10;5.00;;;;;;;13.44;68.48;98960.70;105196;1271;60474;-76
2022/05/17 03:38:51;;;;;;;7.50;5.30;;;;;;;13.47;68.52;98965.56;105165;1271;60446;-76
2022/05/17 03:41:17;;;;;;;8.40;4.80;;;;;;;13.52;68.42;98970.93;105162;1269;60568;-77
2022/05/17 03:43:44;;;;;;;7.60;5.60;;;;;;;13.56;68.21;98977.15;105220;1271;60535;-77
2022/05/17 03:46:12;;;;;;;7.30;4.80;;;;;;;13.60;68.21;98978.11;105196;1271;60581;-77
2022/05/17 03:48:38;;;;;;;5.90;5.10;;;;;;;13.63;68.13;98979.64;104989;1271;69254;-78
2022/05/17 03:51:16;;;;;;;6.40;5.00;;;;;;;13.67;68.15;98983.27;105184;1271;60559;-77
2022/05/17 03:53:43;;;;;;;8.90;5.50;;;;;;;13.68;68.14;98981.27;105227;1271;60606;-77
2022/05/17 03:56:11;;;;;;;7.30;5.10;;;;;;;13.68;68.21;98985.39;105204;1269;60962;-77
2022/05/17 03:58:38;;;;;;;7.80;4.80;;;;;;;13.68;68.36;98987.14;105171;1271;75328;-77
2022/05/17 04:01:06;;;;;;;9.80;4.80;;;;;;;13.70;68.43;98988.23;105188;1271;70155;-77
2022/05/17 04:03:33;;;;;;;7.70;4.60;;;;;;;13.74;68.42;98988.25;105231;1271;73372;-78
2022/05/17 04:06:00;;;;;;;6.80;5.10;;;;;;;13.76;68.30;98991.08;105215;1271;60540;-76
2022/05/17 04:08:27;;;;;;;8.40;5.90;;;;;;;13.81;68.44;98997.30;105223;1271;62058;-77
2022/05/17 04:10:53;;;;;;;9.40;5.10;;;;;;;13.88;68.75;98999.61;105235;1271;75519;-79
2022/05/17 04:13:20;;;;;;;8.60;5.40;;;;;;;13.96;68.64;99005.08;104972;1271;69799;-78
2022/05/17 04:15:46;;;;;;;10.60;5.80;;;;;;;14.06;68.62;99006.05;105153;1271;60479;-77
2022/05/17 04:18:13;;;;;;;10.60;6.60;;;;;;;14.17;68.17;98998.17;105190;1271;60386;-76
2022/05/17 04:20:39;;;;;;;7.80;6.10;;;;;;;14.30;67.83;98996.76;105185;1271;60568;-77
2022/05/17 04:23:06;;;;;;;7.50;4.80;;;;;;;14.43;67.77;98997.45;105200;1271;60593;-77
2022/05/17 04:25:32;;;;;;;8.30;5.40;;;;;;;14.58;67.86;99001.23;105177;1270;60484;-77
2022/05/17 04:27:59;;;;;;;7.90;4.80;;;;;;;14.73;67.51;99003.61;105192;1271;60456;-76
2022/05/17 04:30:26;;;;;;;7.00;5.50;;;;;;;14.85;67.45;98999.55;105176;1270;60616;-76
2022/05/17 04:32:52;;;;;;;7.60;4.70;;;;;;;14.99;67.07;99001.17;105191;1271;61433;-76
2022/05/17 04:35:19;;;;;;;7.90;5.40;;;;;;;15.10;66.79;98998.99;105199;1271;60475;-77
2022/05/17 04:37:46;;;;;;;8.00;5.60;;;;;;;15.21;66.18;99000.25;105179;1271;70381;-77
2022/05/17 04:40:13;;;;;;;6.80;5.10;;;;;;;15.26;66.00;98997.86;105196;1271;73246;-77
2022/05/17 04:42:43;;;;;;;7.20;4.40;;;;;;;15.29;66.13;99000.45;105033;1271;60550;-75
2022/05/17 04:45:13;;;;;;;8.90;5.30;;;;;;;15.25;65.80;99002.04;105407;1269;61014;-77
2022/05/17 04:47:42;;;;;;;7.30;5.20;;;;;;;15.23;65.90;99008.45;105368;1271;74029;-76
2022/05/17 04:50:12;;;;;;;7.50;5.60;;;;;;;15.20;65.70;99011.40;105214;1271;69167;-79
2022/05/17 04:52:39;;;;;;;7.30;5.80;;;;;;;15.17;65.83;99013.98;105371;1271;72268;-78
2022/05/17 04:55:07;;;;;;;10.00;6.50;;;;;;;15.10;65.37;99015.84;105213;1271;60418;-79
2022/05/17 04:57:35;;;;;;;11.20;6.10;;;;;;;15.02;65.19;99013.48;105009;1271;61144;-77
2022/05/17 05:00:06;;;;;;;10.80;5.80;;;;;;;14.95;65.28;99012.66;105171;1271;74788;-77
2022/05/17 05:02:33;;;;;;;9.60;6.20;;;;;;;14.89;65.24;99013.30;104970;1271;69236;-76
2022/05/17 05:04:59;;;;;;;9.40;6.80;;;;;;;14.87;65.35;99009.17;105197;1271;73904;-78
2022/05/17 05:07:26;;;;;;;8.50;6.40;;;;;;;14.90;65.54;99012.52;105215;1269;61127;-77
2022/05/17 05:09:52;;;;;;;9.20;7.10;;;;;;;14.95;65.50;99012.24;104986;1271;60861;-76
2022/05/17 05:12:19;;;;;;;12.90;6.30;;;;;;;15.02;65.28;99008.67;105236;1271;60481;-78
2022/05/17 05:14:45;;;;;;;7.60;5.70;;;;;;;15.10;65.02;99003.52;105228;1271;60520;-77
2022/05/17 05:17:12;;;;;;;10.40;6.80;;;;;;;15.15;64.61;99008.07;105214;1271;60583;-77
2022/05/17 05:19:39;;;;;;;10.40;6.30;;;;;;;15.25;64.68;99001.84;105173;1271;61273;-76
2022/05/17 05:22:06;;;;;;;9.10;5.30;;;;;;;15.38;64.31;98998.20;105249;1269;60759;-78
2022/05/17 05:24:33;;;;;;;7.50;6.30;;;;;;;15.40;63.69;98995.55;105212;1271;73667;-77
2022/05/17 05:26:59;;;;;;;10.60;5.90;;;;;;;15.43;63.75;98995.28;105285;1270;69946;-78
2022/05/17 05:29:26;;;;;;;7.70;5.80;;;;;;;15.58;63.43;98996.42;105222;1271;73281;-77
2022/05/17 05:31:53;;;;;;;11.50;6.90;;;;;;;15.77;63.10;98990.73;105246;1271;61082;-77
2022/05/17 05:34:21;;;;;;;9.40;5.50;;;;;;;16.05;62.85;98989.08;105214;1268;62212;-77
2022/05/17 05:36:48;;;;;;;7.90;6.10;;;;;;;16.60;61.94;98987.48;105215;1271;74371;-76
2022/05/17 05:39:15;;;;;;;10.10;6.00;;;;;;;17.13;60.46;98981.58;105261;1271;69371;-77
2022/05/17 05:41:42;;;;;;;9.70;6.50;;;;;;;17.40;59.75;98986.00;105254;1271;73493;-77
2022/05/17 05:44:08;;;;;;;7.20;5.40;;;;;;;17.57;59.22;98984.89;105241;1271;60590;-76
2022/05/17 05:46:35;;;;;;;8.40;5.30;;;;;;;17.73;58.76;98989.98;105235;1271;60351;-77
2022/05/17 05:49:01;;;;;;;7.90;5.50;;;;;;;17.76;58.49;98987.05;105234;1270;60561;-78
2022/05/17 05:51:28;;;;;;;8.60;6.30;;;;;;;17.65;58.08;98986.68;105069;1271;70311;-78
2022/05/17 05:53:54;;;;;;;49.60;9.50;;;;;;;17.59;58.60;98985.25;105240;1271;60565;-77
2022/05/17 05:56:21;;;;;;;9.20;5.70;;;;;;;17.68;58.82;98982.44;105034;1271;60765;-78
2022/05/17 05:58:48;;;;;;;9.30;5.50;;;;;;;17.74;58.21;98980.02;105234;1271;60960;-77
2022/05/17 06:01:14;;;;;;;10.70;5.70;;;;;;;17.81;58.45;98983.52;105208;1270;60389;-77
2022/05/17 06:03:41;;;;;;;8.80;6.30;;;;;;;17.90;58.31;98981.88;105191;1271;60573;-78
2022/05/17 06:06:08;;;;;;;7.10;5.10;;;;;;;17.95;57.86;98984.52;105225;1271;72664;-78
2022/05/17 06:08:35;;;;;;;8.30;5.10;;;;;;;17.92;57.58;98991.04;105239;1269;60513;-77
2022/05/17 06:11:03;;;;;;;7.60;5.50;;;;;;;17.91;57.41;98992.61;105393;1270;62569;-77
2022/05/17 06:13:30;;;;;;;6.50;5.20;;;;;;;17.95;57.21;98998.55;105457;1271;73800;-77
2022/05/17 06:15:57;;;;;;;9.20;5.50;;;;;;;18.01;56.92;98998.09;105241;1271;68749;-77
2022/05/17 06:18:24;;;;;;;8.00;5.10;;;;;;;18.00;56.81;98997.63;105324;1271;74016;-76
2022/05/17 06:20:53;;;;;;;10.00;5.30;;;;;;;18.09;56.70;98995.05;105210;1269;61513;-77
2022/05/17 06:23:21;;;;;;;7.00;5.00;;;;;;;18.27;56.73;98988.88;105256;1270;61151;-78
2022/05/17 06:25:49;;;;;;;11.90;5.30;;;;;;;18.51;56.91;98981.70;105224;1270;76367;-77
2022/05/17 06:28:16;;;;;;;6.60;4.90;;;;;;;18.69;56.21;98981.61;105229;1271;68257;-75
2022/05/17 06:30:43;;;;;;;7.90;5.30;;;;;;;18.76;55.80;98986.55;105286;1271;73436;-79
2022/05/17 06:33:11;;;;;;;7.80;4.60;;;;;;;18.75;55.49;98991.30;105253;1271;61202;-78
2022/05/17 06:35:38;;;;;;;9.20;5.10;;;;;;;18.78;56.06;98991.20;105339;1271;61281;-76
2022/05/17 06:38:05;;;;;;;7.40;5.20;;;;;;;18.84;55.83;98988.59;105322;1271;75563;-79
2022/05/17 06:40:32;;;;;;;12.00;5.30;;;;;;;18.79;55.13;98991.45;105243;1271;70174;-77
2022/05/17 06:43:00;;;;;;;9.00;5.60;;;;;;;18.67;55.15;98996.81;105222;1271;73181;-77
2022/05/17 06:45:27;;;;;;;7.60;5.40;;;;;;;18.58;55.32;98997.91;105230;1271;61342;-76
2022/05/17 06:47:53;;;;;;;9.20;5.10;;;;;;;18.60;55.75;98999.16;105227;1270;62004;-76
2022/05/17 06:50:20;;;;;;;6.50;5.40;;;;;;;18.58;55.14;98997.48;105018;1271;76560;-76
2022/05/17 06:52:47;;;;;;;13.30;5.90;;;;;;;18.55;55.06;99002.19;105255;1271;69410;-76
2022/05/17 06:55:14;;;;;;;9.20;5.80;;;;;;;18.52;54.97;99000.58;105071;1271;73552;-79
2022/05/17 06:57:42;;;;;;;9.10;5.40;;;;;;;18.57;54.69;98997.93;105204;1271;61202;-77
2022/05/17 07:00:13;;;;;;;8.40;5.40;;;;;;;18.89;54.77;99002.34;105332;1271;61261;-79
2022/05/17 07:02:40;;;;;;;7.30;5.10;;;;;;;19.31;54.58;98998.27;105394;1269;76533;-74
2022/05/17 07:05:08;;;;;;;8.30;6.20;;;;;;;19.70;53.92;98994.38;105298;1271;70320;-77
2022/05/17 07:07:37;;;;;;;8.80;7.00;;;;;;;20.00;53.36;98987.02;105353;1271;74846;-77
2022/05/17 07:13:08;;;;;;;7.40;5.70;;;;;;;20.33;52.58;98993.99;105265;1271;61291;-78
2022/05/17 07:15:37;;;;;;;10.30;5.80;;;;;;;20.41;52.43;98992.63;104982;1271;76179;-76
2022/05/17 07:18:05;;;;;;;9.70;6.00;;;;;;;20.38;52.21;98996.92;105232;1271;69258;-76
2022/05/17 07:20:31;;;;;;;8.40;5.30;;;;;;;20.41;52.04;98997.86;105221;1271;72324;-77
2022/05/17 07:22:58;;;;;;;6.80;5.30;;;;;;;20.48;51.59;99000.83;105248;1271;61403;-77
2022/05/17 07:25:25;;;;;;;7.00;5.40;;;;;;;20.63;51.60;98998.59;105200;1271;61337;-77
2022/05/17 07:27:51;;;;;;;8.40;5.40;;;;;;;20.80;51.30;98999.21;105207;1270;75646;-78
2022/05/17 07:30:18;;;;;;;6.60;5.30;;;;;;;20.96;51.71;98996.42;105224;1271;61295;-77
2022/05/17 07:32:46;;;;;;;6.70;5.10;;;;;;;21.11;51.24;98996.92;105200;1271;72351;-76
2022/05/17 07:35:13;;;;;;;7.30;5.50;;;;;;;21.18;51.13;98998.11;105280;1269;61371;-77
2022/05/17 07:37:40;;;;;;;8.70;6.20;;;;;;;21.21;50.26;98992.71;105072;1271;61255;-77
2022/05/17 07:40:07;;;;;;;9.80;5.50;;;;;;;21.12;50.18;98994.83;105256;1271;61300;-78
2022/05/17 07:42:34;;;;;;;6.90;5.20;;;;;;;21.13;50.41;98991.26;105054;1271;68593;-77
2022/05/17 07:45:00;;;;;;;8.00;5.90;;;;;;;21.17;50.05;98991.33;105197;1271;61345;-77
2022/05/17 07:47:27;;;;;;;7.60;5.40;;;;;;;21.17;50.03;98992.64;105232;1271;61303;-79
2022/05/17 07:49:53;;;;;;;7.30;5.30;;;;;;;21.14;49.96;98993.49;105217;1271;61355;-78
2022/05/17 07:52:20;;;;;;;8.50;5.40;;;;;;;21.18;50.44;98992.69;105225;1271;61263;-77
2022/05/17 07:54:46;;;;;;;6.70;5.50;;;;;;;21.20;49.91;98994.58;105216;1270;70616;-77
2022/05/17 07:57:13;;;;;;;9.30;5.20;;;;;;;21.16;49.54;99001.25;105215;1270;61305;-76
2022/05/17 07:59:39;;;;;;;6.90;5.30;;;;;;;21.12;49.31;99002.44;105176;1271;61346;-77
2022/05/17 08:02:06;;;;;;;8.20;5.70;;;;;;;21.02;49.05;99001.63;105227;1271;61168;-77
2022/05/17 08:04:32;;;;;;;7.20;5.40;;;;;;;20.91;49.13;98998.78;105202;1269;61156;-78
2022/05/17 08:06:59;;;;;;;8.00;5.50;;;;;;;20.90;49.12;98996.48;105205;1271;61069;-77
2022/05/17 08:09:26;;;;;;;9.80;6.50;;;;;;;20.93;49.12;98998.17;105263;1270;61373;-76
2022/05/17 08:11:53;;;;;;;8.40;5.10;;;;;;;20.98;49.22;98993.98;105011;1272;61437;-77
2022/05/17 08:14:20;;;;;;;10.00;7.70;;;;;;;21.04;49.17;98990.29;105231;1271;61288;-78
2022/05/17 08:16:46;;;;;;;11.30;6.70;;;;;;;21.07;49.40;98988.29;105222;1271;75246;-76
2022/05/17 08:19:13;;;;;;;9.00;5.90;;;;;;;21.24;49.46;98985.30;105214;1271;68754;-76
2022/05/17 08:21:40;;;;;;;10.20;6.00;;;;;;;21.42;49.52;98989.29;105257;1271;73359;-75
2022/05/17 08:24:07;;;;;;;7.50;5.60;;;;;;;21.61;49.57;98987.32;104952;1271;61366;-77
2022/05/17 08:29:19;;;;;;;8.10;5.40;;;;;;;21.99;48.74;98979.80;105245;1271;76203;-76
2022/05/17 08:33:14;;;;;;;7.70;5.30;;;;;;;22.21;48.98;98979.73;105215;1271;70159;-77
2022/05/17 08:34:33;;;;;;;7.00;5.70;;;;;;;22.45;48.83;98980.46;105230;1271;74513;-78
2022/05/17 08:37:00;;;;;;;9.40;7.80;;;;;;;22.57;48.14;98982.27;105251;1271;61257;-77
2022/05/17 08:39:27;;;;;;;10.50;7.10;;;;;;;22.71;47.96;98988.48;105211;1271;61197;-76
2022/05/17 08:42:00;;;;;;;10.70;8.10;;;;;;;22.83;48.11;98987.77;105238;1271;76458;-76
2022/05/17 08:44:50;;;;;;;8.10;7.30;;;;;;;22.92;47.32;98991.48;105234;1271;69529;-77
2022/05/17 08:47:35;;;;;;;10.10;7.90;;;;;;;22.93;46.93;98990.42;105217;1271;74330;-77
2022/05/17 08:50:09;;;;;;;7.90;5.60;;;;;;;22.94;46.58;98993.38;105232;1271;61307;-77
2022/05/17 08:52:38;;;;;;;6.10;5.00;;;;;;;22.84;45.92;98991.14;105265;1270;61279;-75
2022/05/17 08:55:29;;;;;;;7.30;5.60;;;;;;;22.73;46.09;98992.91;105310;1271;74325;-77
2022/05/17 08:58:17;;;;;;;7.80;5.30;;;;;;;22.55;46.01;98996.70;105203;1270;70546;-77
2022/05/17 09:00:59;;;;;;;7.30;5.30;;;;;;;22.39;46.21;99003.39;105152;1271;73511;-76
2022/05/17 09:03:43;;;;;;;7.60;5.20;;;;;;;22.24;46.08;99008.65;105229;1271;60291;-76
2022/05/17 09:06:21;;;;;;;6.50;5.60;;;;;;;22.16;46.09;99006.96;105228;1271;61983;-75
2022/05/17 09:09:17;;;;;;;7.00;4.90;;;;;;;22.08;46.16;99012.27;105198;1270;75282;-77
2022/05/17 09:12:03;;;;;;;10.90;5.20;;;;;;;22.04;45.72;99010.48;105269;1271;69675;-77
2022/05/17 09:14:35;;;;;;;7.50;6.00;;;;;;;21.98;45.74;99011.95;105082;1271;74202;-77
2022/05/17 09:17:11;;;;;;;7.30;5.70;;;;;;;22.13;46.56;99003.89;105220;1271;61272;-77
2022/05/17 09:19:38;;;;;;;9.90;5.60;;;;;;;22.40;46.68;99003.86;105427;1271;61260;-75
2022/05/17 09:22:06;;;;;;;9.10;6.10;;;;;;;22.61;46.14;99001.73;105220;1271;75200;-77
2022/05/17 09:24:43;;;;;;;8.00;6.60;;;;;;;22.85;46.54;99005.30;105255;1271;69172;-76
2022/05/17 09:27:32;;;;;;;9.80;5.30;;;;;;;23.02;45.53;99005.49;105219;1271;72920;-77
2022/05/17 09:30:07;;;;;;;6.80;5.60;;;;;;;23.09;45.70;98999.23;105187;1271;61316;-77
2022/05/17 09:32:39;;;;;;;11.00;5.50;;;;;;;23.26;45.61;98998.22;105259;1271;61989;-77
2022/05/17 09:35:20;;;;;;;10.00;5.20;;;;;;;23.35;44.81;98999.19;105385;1269;74496;-77
2022/05/17 09:37:53;;;;;;;7.80;5.20;;;;;;;23.38;44.65;98996.58;105388;1271;69424;-77
2022/05/17 09:40:26;;;;;;;9.10;6.60;;;;;;;23.42;44.54;98996.68;105265;1271;73045;-77
2022/05/17 09:43:04;;;;;;;8.10;4.80;;;;;;;23.44;44.41;98994.07;105231;1271;61310;-76
2022/05/17 09:45:46;;;;;;;7.00;5.00;;;;;;;23.53;44.30;98990.69;105220;1271;61342;-76
2022/05/17 09:48:23;;;;;;;8.30;5.10;;;;;;;23.57;43.95;98988.33;105266;1271;75915;-78
2022/05/17 09:53:49;;;;;;;7.10;5.00;;;;;;;23.74;44.05;98987.94;105271;1271;72900;-77
2022/05/17 09:56:23;;;;;;;8.40;5.20;;;;;;;23.82;43.99;98991.89;105271;1270;61302;-76
2022/05/17 09:58:50;;;;;;;10.10;6.00;;;;;;;23.92;44.17;98998.30;104997;1271;61272;-76
2022/05/17 10:01:22;;;;;;;11.80;4.80;;;;;;;23.94;43.59;98996.55;105251;1271;75448;-77
2022/05/17 10:04:07;;;;;;;8.80;5.20;;;;;;;24.02;44.17;98997.70;105261;1271;69342;-77
2022/05/17 10:06:40;;;;;;;6.60;4.30;;;;;;;24.14;44.23;98990.99;105412;1271;73863;-77
2022/05/17 10:09:09;;;;;;;6.60;4.70;;;;;;;24.22;43.58;98994.46;105240;1271;61316;-77
2022/05/17 10:11:57;;;;;;;10.90;4.70;;;;;;;24.24;43.54;98994.70;105226;1271;61294;-76
2022/05/17 10:14:39;;;;;;;5.50;3.90;;;;;;;24.22;43.44;98992.34;105226;1271;74758;-77
2022/05/17 10:17:26;;;;;;;10.30;4.90;;;;;;;24.26;43.58;98990.59;105227;1271;69257;-77
2022/05/17 10:20:01;;;;;;;7.00;4.50;;;;;;;24.30;43.27;98993.13;105255;1271;74379;-77
2022/05/17 10:22:36;;;;;;;6.20;4.10;;;;;;;24.32;43.12;98988.23;105189;1271;61339;-77
2022/05/17 10:25:25;;;;;;;7.30;4.50;;;;;;;24.35;42.79;98987.38;105229;1270;62686;-75
2022/05/17 10:28:14;;;;;;;8.50;4.70;;;;;;;24.42;43.00;98988.85;105233;1271;76651;-76
2022/05/17 10:30:52;;;;;;;8.80;4.30;;;;;;;24.45;43.31;98992.30;105243;1269;70399;-75
2022/05/17 10:33:31;;;;;;;7.30;4.90;;;;;;;24.54;43.49;98989.94;105259;1271;73739;-78
2022/05/17 10:36:17;;;;;;;8.20;4.90;;;;;;;24.55;42.94;98992.38;105274;1269;61307;-76
2022/05/17 10:38:56;;;;;;;10.20;4.90;;;;;;;24.40;42.60;98986.65;105237;1269;61278;-77
2022/05/17 10:41:25;;;;;;;8.60;4.90;;;;;;;24.29;42.80;98987.66;105244;1271;75293;-76
2022/05/17 10:43:53;;;;;;;6.30;4.40;;;;;;;24.23;43.09;98983.69;105115;1271;70797;-76
2022/05/17 10:46:26;;;;;;;10.10;4.60;;;;;;;24.28;43.45;98982.02;105250;1271;71832;-77
2022/05/17 10:49:19;;;;;;;12.50;4.70;;;;;;;24.35;43.70;98985.33;105253;1271;61301;-77
2022/05/17 10:52:07;;;;;;;6.50;4.50;;;;;;;24.29;43.19;98988.20;104852;1277;62194;-77
2022/05/17 10:54:57;;;;;;;9.10;4.70;;;;;;;24.34;43.67;98989.17;104924;1277;76378;-77
2022/05/17 10:57:51;;;;;;;12.30;4.30;;;;;;;24.38;43.06;98986.38;104831;1277;70225;-77
2022/05/17 11:00:25;;;;;;;7.70;4.80;;;;;;;24.46;42.90;98987.11;104860;1277;74423;-76
2022/05/17 11:03:22;;;;;;;7.60;3.80;;;;;;;24.48;42.47;98984.30;104792;1277;61442;-76
2022/05/17 11:05:53;;;;;;;9.70;3.50;;;;;;;24.45;41.47;98986.60;104681;1277;61163;-76
2022/05/17 11:08:47;;;;;;;7.00;3.60;;;;;;;24.45;41.24;98984.21;104891;1277;75164;-78
2022/05/17 11:11:32;;;;;;;12.60;4.30;;;;;;;24.47;41.31;98987.14;104841;1277;68648;-77
2022/05/17 11:14:14;;;;;;;7.90;3.70;;;;;;;24.46;41.63;98984.90;104850;1276;74812;-77
2022/05/17 11:17:14;;;;;;;6.00;3.30;;;;;;;24.60;41.72;98985.98;104849;1277;61290;-77
2022/05/17 11:20:04;;;;;;;8.70;3.80;;;;;;;24.72;41.23;98985.52;104883;1277;61472;-76
2022/05/17 11:22:45;;;;;;;;;;;;;;;24.75;41.14;98987.40;104849;1277;75139;-74
2022/05/17 11:25:30;;;;;;;5.90;2.90;;;;;;;24.80;41.14;98983.74;104836;1277;70578;-76
2022/05/17 11:28:09;;;;;;;5.10;2.90;;;;;;;24.94;39.79;98991.02;104813;1277;74305;-78
2022/05/17 11:31:00;;;;;;;4.10;2.50;;;;;;;24.97;38.36;98992.84;105190;1268;61270;-77
2022/05/17 11:33:39;;;;;;;7.70;2.70;;;;;;;24.90;38.36;98997.52;105318;1268;61464;-77
2022/05/17 11:36:31;;;;;;;5.40;3.00;;;;;;;24.86;37.94;98995.69;105245;1268;75288;-78
2022/05/17 11:38:59;;;;;;;6.30;2.50;;;;;;;24.82;38.66;98999.08;105273;1268;69331;-78
2022/05/17 11:41:34;;;;;;;7.60;2.50;;;;;;;24.81;38.89;99001.75;105274;1268;72336;-78
2022/05/17 11:44:05;;;;;;;4.50;2.40;;;;;;;24.78;38.95;98995.73;105313;1268;61186;-77
2022/05/17 11:46:32;;;;;;;6.40;2.20;;;;;;;24.68;38.26;99001.54;105275;1268;61327;-77
2022/05/17 11:49:00;;;;;;;9.10;2.50;;;;;;;24.58;39.34;99003.73;105275;1268;61350;-76
2022/05/17 11:51:38;;;;;;;6.20;2.70;;;;;;;24.39;39.59;99001.73;105266;1268;69350;-78